sensor_id;sensor_type;location;lat;lon;timestamp;pressure;altitude;pressure_sealevel;temperature;humidity
9325;BME280;4701;51.566;6.776;2022-12-18T06:01:06;102555.50;;;-11.16;89.15
9325;BME280;4701;51.566;6.776;2022-12-18T06:03:10;102559.22;;;-11.20;89.12
9325;BME280;4701;51.566;6.776;2022-12-18T06:05:12;102569.66;;;-11.19;89.09
9325;BME280;4701;51.566;6.776;2022-12-18T06:07:14;102572.13;;;-11.16;89.16
9325;BME280;4701;51.566;6.776;2022-12-18T06:09:16;102572.03;;;-11.14;88.72
9325;BME280;4701;51.566;6.776;2022-12-18T06:11:19;102579.00;;;-11.13;89.12
9325;BME280;4701;51.566;6.776;2022-12-18T06:13:22;102579.00;;;-11.13;89.01
9325;BME280;4701;51.566;6.776;2022-12-18T06:15:24;102578.06;;;-11.12;88.75
9325;BME280;4701;51.566;6.776;2022-12-18T06:17:28;102574.59;;;-11.13;89.13
9325;BME280;4701;51.566;6.776;2022-12-18T06:19:30;102565.75;;;-11.12;88.92
9325;BME280;4701;51.566;6.776;2022-12-18T06:21:32;102571.94;;;-11.13;88.88
9325;BME280;4701;51.566;6.776;2022-12-18T06:23:35;102572.88;;;-11.14;88.68
9325;BME280;4701;51.566;6.776;2022-12-18T06:25:38;102573.84;;;-11.15;88.53
9325;BME280;4701;51.566;6.776;2022-12-18T06:27:40;102573.75;;;-11.13;88.87
9325;BME280;4701;51.566;6.776;2022-12-18T06:29:42;102563.06;;;-11.10;88.62
9325;BME280;4701;51.566;6.776;2022-12-18T06:31:44;102567.72;;;-11.15;88.54
9325;BME280;4701;51.566;6.776;2022-12-18T06:33:47;102564.06;;;-11.13;88.98
9325;BME280;4701;51.566;6.776;2022-12-18T06:35:49;102553.44;;;-11.11;88.43
9325;BME280;4701;51.566;6.776;2022-12-18T06:37:50;102564.13;;;-11.14;89.05
9325;BME280;4701;51.566;6.776;2022-12-18T06:39:52;102552.78;;;-11.15;88.46
9325;BME280;4701;51.566;6.776;2022-12-18T06:41:54;102557.09;;;-11.14;88.58
9325;BME280;4701;51.566;6.776;2022-12-18T06:43:57;102548.69;;;-11.20;88.94
9325;BME280;4701;51.566;6.776;2022-12-18T06:45:59;102547.75;;;-11.19;88.58
9325;BME280;4701;51.566;6.776;2022-12-18T06:48:01;102539.78;;;-11.18;89.13
9325;BME280;4701;51.566;6.776;2022-12-18T06:50:05;102536.22;;;-11.17;88.91
9325;BME280;4701;51.566;6.776;2022-12-18T06:52:07;102533.56;;;-11.17;88.54
9325;BME280;4701;51.566;6.776;2022-12-18T06:54:09;102527.53;;;-11.19;88.14
9325;BME280;4701;51.566;6.776;2022-12-18T06:56:14;102530.31;;;-11.22;88.48
9325;BME280;4701;51.566;6.776;2022-12-18T06:58:16;102518.19;;;-11.24;87.74
9325;BME280;4701;51.566;6.776;2022-12-18T07:00:18;102518.28;;;-11.26;88.31
9325;BME280;4701;51.566;6.776;2022-12-18T07:02:20;102514.03;;;-11.28;88.53
9325;BME280;4701;51.566;6.776;2022-12-18T07:04:21;102515.81;;;-11.29;88.29
9325;BME280;4701;51.566;6.776;2022-12-18T07:06:25;102518.69;;;-11.33;88.64
9325;BME280;4701;51.566;6.776;2022-12-18T07:08:28;102519.47;;;-11.31;89.04
9325;BME280;4701;51.566;6.776;2022-12-18T07:10:30;102514.03;;;-11.28;88.66
9325;BME280;4701;51.566;6.776;2022-12-18T07:12:32;102512.16;;;-11.26;89.07
9325;BME280;4701;51.566;6.776;2022-12-18T07:14:34;102519.97;;;-11.25;88.42
9325;BME280;4701;51.566;6.776;2022-12-18T07:16:35;102519.91;;;-11.23;89.35
9325;BME280;4701;51.566;6.776;2022-12-18T07:18:37;102520.75;;;-11.23;89.35
9325;BME280;4701;51.566;6.776;2022-12-18T07:20:39;102520.75;;;-11.23;89.53
9325;BME280;4701;51.566;6.776;2022-12-18T07:22:45;102525.06;;;-11.22;88.76
9325;BME280;4701;51.566;6.776;2022-12-18T07:24:50;102518.19;;;-11.24;88.81
9325;BME280;4701;51.566;6.776;2022-12-18T07:26:55;102515.38;;;-11.21;89.03
9325;BME280;4701;51.566;6.776;2022-12-18T07:29:00;102514.38;;;-11.19;89.44
9325;BME280;4701;51.566;6.776;2022-12-18T07:31:07;102510.81;;;-11.18;89.39
9325;BME280;4701;51.566;6.776;2022-12-18T07:33:11;102507.06;;;-11.14;89.08
9325;BME280;4701;51.566;6.776;2022-12-18T07:35:18;102510.53;;;-11.13;89.52
9325;BME280;4701;51.566;6.776;2022-12-18T07:37:24;102503.41;;;-11.11;89.25
9325;BME280;4701;51.566;6.776;2022-12-18T07:39:34;102500.00;;;-11.13;89.39
9325;BME280;4701;51.566;6.776;2022-12-18T07:41:40;102508.19;;;-11.18;89.30
9325;BME280;4701;51.566;6.776;2022-12-18T07:43:52;102501.78;;;-11.14;89.70
9325;BME280;4701;51.566;6.776;2022-12-18T07:45:57;102510.47;;;-11.12;89.71
9325;BME280;4701;51.566;6.776;2022-12-18T07:48:07;102521.69;;;-11.08;89.87
9325;BME280;4701;51.566;6.776;2022-12-18T07:50:09;102514.31;;;-11.01;89.87
9325;BME280;4701;51.566;6.776;2022-12-18T07:52:10;102510.56;;;-10.97;89.49
9325;BME280;4701;51.566;6.776;2022-12-18T07:54:13;102514.72;;;-10.93;89.51
9325;BME280;4701;51.566;6.776;2022-12-18T07:56:16;102518.91;;;-10.89;88.87
9325;BME280;4701;51.566;6.776;2022-12-18T07:58:18;102517.94;;;-10.88;89.08
9325;BME280;4701;51.566;6.776;2022-12-18T08:00:20;102513.72;;;-10.91;89.59
9325;BME280;4701;51.566;6.776;2022-12-18T08:02:22;102514.38;;;-10.87;89.68
9325;BME280;4701;51.566;6.776;2022-12-18T08:04:24;102518.28;;;-10.79;89.25
9325;BME280;4701;51.566;6.776;2022-12-18T08:06:25;102518.69;;;-10.71;89.87
9325;BME280;4701;51.566;6.776;2022-12-18T08:08:28;102513.19;;;-10.66;89.20
9325;BME280;4701;51.566;6.776;2022-12-18T08:10:30;102508.56;;;-10.62;89.90
9325;BME280;4701;51.566;6.776;2022-12-18T08:12:33;102500.78;;;-10.64;89.52
9325;BME280;4701;51.566;6.776;2022-12-18T08:14:35;102503.13;;;-10.59;89.45
9325;BME280;4701;51.566;6.776;2022-12-18T08:16:37;102489.59;;;-10.53;89.27
9325;BME280;4701;51.566;6.776;2022-12-18T08:18:39;102478.81;;;-10.49;89.59
9325;BME280;4701;51.566;6.776;2022-12-18T08:20:40;102485.59;;;-10.45;89.70
9325;BME280;4701;51.566;6.776;2022-12-18T08:22:45;102479.31;;;-10.42;90.24
9325;BME280;4701;51.566;6.776;2022-12-18T08:24:47;102481.25;;;-10.30;89.88
9325;BME280;4701;51.566;6.776;2022-12-18T08:26:49;102479.00;;;-10.22;89.17
9325;BME280;4701;51.566;6.776;2022-12-18T08:28:56;102465.25;;;-10.13;89.92
9325;BME280;4701;51.566;6.776;2022-12-18T08:30:58;102453.94;;;-10.01;89.98
9325;BME280;4701;51.566;6.776;2022-12-18T08:32:59;102451.78;;;-9.94;89.66
9325;BME280;4701;51.566;6.776;2022-12-18T08:35:01;102452.81;;;-9.82;89.89
9325;BME280;4701;51.566;6.776;2022-12-18T08:37:03;102448.78;;;-9.74;89.35
9325;BME280;4701;51.566;6.776;2022-12-18T08:39:05;102446.41;;;-9.64;89.09
9325;BME280;4701;51.566;6.776;2022-12-18T08:41:09;102432.44;;;-9.52;89.48
9325;BME280;4701;51.566;6.776;2022-12-18T08:43:11;102440.56;;;-9.41;89.24
9325;BME280;4701;51.566;6.776;2022-12-18T08:45:31;102442.53;;;-9.30;88.94
9325;BME280;4701;51.566;6.776;2022-12-18T08:47:35;102452.50;;;-9.21;88.84
9325;BME280;4701;51.566;6.776;2022-12-18T08:49:37;102458.69;;;-9.08;89.37
9325;BME280;4701;51.566;6.776;2022-12-18T08:51:39;102461.31;;;-8.94;89.88
9325;BME280;4701;51.566;6.776;2022-12-18T08:53:41;102460.41;;;-8.80;89.93
9325;BME280;4701;51.566;6.776;2022-12-18T08:55:43;102450.63;;;-8.65;89.64
9325;BME280;4701;51.566;6.776;2022-12-18T08:57:47;102449.81;;;-8.53;89.61
9325;BME280;4701;51.566;6.776;2022-12-18T08:59:49;102450.91;;;-8.43;89.10
9325;BME280;4701;51.566;6.776;2022-12-18T09:01:53;102443.81;;;-8.30;88.89
9325;BME280;4701;51.566;6.776;2022-12-18T09:03:55;102441.41;;;-8.20;88.92
9325;BME280;4701;51.566;6.776;2022-12-18T09:05:57;102440.56;;;-8.08;89.00
9325;BME280;4701;51.566;6.776;2022-12-18T09:07:59;102438.75;;;-7.95;89.01
9325;BME280;4701;51.566;6.776;2022-12-18T09:10:02;102436.22;;;-7.84;89.03
9325;BME280;4701;51.566;6.776;2022-12-18T09:12:03;102433.66;;;-7.73;88.83
9325;BME280;4701;51.566;6.776;2022-12-18T09:14:06;102433.03;;;-7.64;89.03
9325;BME280;4701;51.566;6.776;2022-12-18T09:16:08;102431.63;;;-7.56;89.19
9325;BME280;4701;51.566;6.776;2022-12-18T09:18:12;102430.38;;;-7.51;89.20
9325;BME280;4701;51.566;6.776;2022-12-18T09:20:14;102436.94;;;-7.44;88.86
9325;BME280;4701;51.566;6.776;2022-12-18T09:22:16;102451.31;;;-7.35;88.89
9325;BME280;4701;51.566;6.776;2022-12-18T09:24:18;102434.03;;;-7.28;89.04
9325;BME280;4701;51.566;6.776;2022-12-18T09:26:24;102436.66;;;-7.15;88.88
9325;BME280;4701;51.566;6.776;2022-12-18T09:28:26;102434.28;;;-7.07;88.79
9325;BME280;4701;51.566;6.776;2022-12-18T09:30:28;102443.88;;;-6.94;88.64
9325;BME280;4701;51.566;6.776;2022-12-18T09:32:29;102437.56;;;-6.80;88.73
9325;BME280;4701;51.566;6.776;2022-12-18T09:34:33;102441.63;;;-6.63;88.62
9325;BME280;4701;51.566;6.776;2022-12-18T09:36:34;102428.66;;;-6.55;88.64
9325;BME280;4701;51.566;6.776;2022-12-18T09:38:36;102440.97;;;-6.43;88.25
9325;BME280;4701;51.566;6.776;2022-12-18T09:40:44;102433.50;;;-6.38;88.14
9325;BME280;4701;51.566;6.776;2022-12-18T09:42:53;102431.16;;;-6.30;87.99
9325;BME280;4701;51.566;6.776;2022-12-18T09:45:00;102432.00;;;-6.18;88.35
9325;BME280;4701;51.566;6.776;2022-12-18T09:47:07;102434.22;;;-6.01;88.67
9325;BME280;4701;51.566;6.776;2022-12-18T09:49:12;102427.69;;;-5.86;88.19
9325;BME280;4701;51.566;6.776;2022-12-18T09:51:23;102429.16;;;-5.70;88.46
9325;BME280;4701;51.566;6.776;2022-12-18T09:53:31;102422.66;;;-5.55;88.44
9325;BME280;4701;51.566;6.776;2022-12-18T09:55:36;102423.47;;;-5.44;88.40
9325;BME280;4701;51.566;6.776;2022-12-18T09:57:42;102408.13;;;-5.40;87.66
9325;BME280;4701;51.566;6.776;2022-12-18T09:59:50;102398.97;;;-5.36;87.79
9325;BME280;4701;51.566;6.776;2022-12-18T10:01:53;102393.88;;;-5.28;88.07
9325;BME280;4701;51.566;6.776;2022-12-18T10:03:55;102384.06;;;-5.16;87.33
9325;BME280;4701;51.566;6.776;2022-12-18T10:06:02;102392.00;;;-5.05;87.34
9325;BME280;4701;51.566;6.776;2022-12-18T10:08:13;102396.91;;;-4.89;87.33
9325;BME280;4701;51.566;6.776;2022-12-18T10:10:32;102396.75;;;-4.77;87.58
9325;BME280;4701;51.566;6.776;2022-12-18T10:12:42;102399.47;;;-4.67;87.52
9325;BME280;4701;51.566;6.776;2022-12-18T10:14:51;102388.78;;;-4.56;87.68
9325;BME280;4701;51.566;6.776;2022-12-18T10:17:00;102380.88;;;-4.46;87.92
9325;BME280;4701;51.566;6.776;2022-12-18T10:19:27;102378.88;;;-4.33;87.98
9325;BME280;4701;51.566;6.776;2022-12-18T10:21:36;102379.53;;;-4.20;87.76
9325;BME280;4701;51.566;6.776;2022-12-18T10:23:48;102378.34;;;-4.06;88.05
9325;BME280;4701;51.566;6.776;2022-12-18T10:26:01;102371.13;;;-3.95;88.00
9325;BME280;4701;51.566;6.776;2022-12-18T10:28:10;102367.84;;;-3.77;88.04
9325;BME280;4701;51.566;6.776;2022-12-18T10:30:15;102359.91;;;-3.58;88.13
9325;BME280;4701;51.566;6.776;2022-12-18T10:32:18;102358.00;;;-3.37;88.23
9325;BME280;4701;51.566;6.776;2022-12-18T10:34:20;102353.69;;;-3.19;88.12
9325;BME280;4701;51.566;6.776;2022-12-18T10:36:23;102347.81;;;-3.03;87.33
9325;BME280;4701;51.566;6.776;2022-12-18T10:38:27;102353.44;;;-2.87;87.32
9325;BME280;4701;51.566;6.776;2022-12-18T10:40:31;102347.00;;;-2.75;86.90
9325;BME280;4701;51.566;6.776;2022-12-18T10:42:33;102347.97;;;-2.66;86.62
9325;BME280;4701;51.566;6.776;2022-12-18T10:44:35;102348.97;;;-2.57;86.19
9325;BME280;4701;51.566;6.776;2022-12-18T10:46:38;102347.81;;;-2.45;86.03
9325;BME280;4701;51.566;6.776;2022-12-18T10:48:49;102343.56;;;-2.38;85.88
9325;BME280;4701;51.566;6.776;2022-12-18T10:50:51;102330.06;;;-2.37;85.72
9325;BME280;4701;51.566;6.776;2022-12-18T10:52:58;102328.50;;;-2.30;85.53
9325;BME280;4701;51.566;6.776;2022-12-18T10:55:03;102338.50;;;-2.22;85.46
9325;BME280;4701;51.566;6.776;2022-12-18T10:57:20;102329.63;;;-2.13;85.60
9325;BME280;4701;51.566;6.776;2022-12-18T10:59:50;102321.44;;;-2.11;85.27
9325;BME280;4701;51.566;6.776;2022-12-18T11:01:54;102314.25;;;-2.11;85.16
9325;BME280;4701;51.566;6.776;2022-12-18T11:04:02;102304.69;;;-2.04;85.42
9325;BME280;4701;51.566;6.776;2022-12-18T11:06:07;102300.59;;;-1.98;85.14
9325;BME280;4701;51.566;6.776;2022-12-18T11:08:20;102297.78;;;-1.97;85.20
9325;BME280;4701;51.566;6.776;2022-12-18T11:10:26;102288.47;;;-1.93;85.03
9325;BME280;4701;51.566;6.776;2022-12-18T11:12:31;102297.88;;;-1.88;84.88
9325;BME280;4701;51.566;6.776;2022-12-18T11:14:34;102292.22;;;-1.85;84.60
9325;BME280;4701;51.566;6.776;2022-12-18T11:16:47;102303.19;;;-1.79;85.20
9325;BME280;4701;51.566;6.776;2022-12-18T11:18:50;102297.38;;;-1.74;85.31
9325;BME280;4701;51.566;6.776;2022-12-18T11:20:53;102287.06;;;-1.69;85.41
9325;BME280;4701;51.566;6.776;2022-12-18T11:22:59;102279.63;;;-1.66;85.27
9325;BME280;4701;51.566;6.776;2022-12-18T11:25:04;102288.34;;;-1.64;85.25
9325;BME280;4701;51.566;6.776;2022-12-18T11:27:17;102285.91;;;-1.57;85.55
9325;BME280;4701;51.566;6.776;2022-12-18T11:29:30;102279.25;;;-1.53;85.18
9325;BME280;4701;51.566;6.776;2022-12-18T11:31:32;102280.34;;;-1.46;85.41
9325;BME280;4701;51.566;6.776;2022-12-18T11:33:35;102271.00;;;-1.42;85.27
9325;BME280;4701;51.566;6.776;2022-12-18T11:35:42;102265.66;;;-1.42;85.61
9325;BME280;4701;51.566;6.776;2022-12-18T11:37:49;102260.03;;;-1.39;85.28
9325;BME280;4701;51.566;6.776;2022-12-18T11:39:56;102256.22;;;-1.36;85.61
9325;BME280;4701;51.566;6.776;2022-12-18T11:42:05;102246.50;;;-1.37;85.45
9325;BME280;4701;51.566;6.776;2022-12-18T11:44:13;102238.63;;;-1.39;85.66
9325;BME280;4701;51.566;6.776;2022-12-18T11:46:23;102238.91;;;-1.42;85.81
9325;BME280;4701;51.566;6.776;2022-12-18T11:48:29;102237.38;;;-1.44;86.04
9325;BME280;4701;51.566;6.776;2022-12-18T11:50:45;102237.56;;;-1.46;86.27
9325;BME280;4701;51.566;6.776;2022-12-18T11:52:48;102229.28;;;-1.53;86.65
9325;BME280;4701;51.566;6.776;2022-12-18T11:54:51;102227.91;;;-1.57;87.47
9325;BME280;4701;51.566;6.776;2022-12-18T11:56:57;102231.09;;;-1.53;87.86
9325;BME280;4701;51.566;6.776;2022-12-18T11:59:07;102227.16;;;-1.49;87.95
9325;BME280;4701;51.566;6.776;2022-12-18T12:01:20;102235.03;;;-1.47;88.27
9325;BME280;4701;51.566;6.776;2022-12-18T12:03:39;102233.97;;;-1.55;88.83
9325;BME280;4701;51.566;6.776;2022-12-18T12:05:51;102240.16;;;-1.54;89.36
9325;BME280;4701;51.566;6.776;2022-12-18T12:08:03;102240.06;;;-1.62;88.97
9325;BME280;4701;51.566;6.776;2022-12-18T12:10:17;102244.56;;;-1.63;90.26
9325;BME280;4701;51.566;6.776;2022-12-18T12:12:30;102245.66;;;-1.56;90.43
9325;BME280;4701;51.566;6.776;2022-12-18T12:14:51;102239.69;;;-1.49;90.96
9325;BME280;4701;51.566;6.776;2022-12-18T12:16:59;102231.88;;;-1.43;91.11
9325;BME280;4701;51.566;6.776;2022-12-18T12:19:17;102232.28;;;-1.38;90.71
9325;BME280;4701;51.566;6.776;2022-12-18T12:21:28;102226.25;;;-1.40;90.89
9325;BME280;4701;51.566;6.776;2022-12-18T12:23:41;102222.25;;;-1.36;91.32
9325;BME280;4701;51.566;6.776;2022-12-18T12:25:48;102218.44;;;-1.33;91.66
9325;BME280;4701;51.566;6.776;2022-12-18T12:27:58;102214.22;;;-1.36;91.18
9325;BME280;4701;51.566;6.776;2022-12-18T12:30:16;102204.38;;;-1.35;91.44
9325;BME280;4701;51.566;6.776;2022-12-18T12:32:34;102208.88;;;-1.36;92.13
9325;BME280;4701;51.566;6.776;2022-12-18T12:34:48;102207.59;;;-1.32;92.15
9325;BME280;4701;51.566;6.776;2022-12-18T12:37:04;102200.97;;;-1.28;91.94
9325;BME280;4701;51.566;6.776;2022-12-18T12:39:14;102198.66;;;-1.23;91.98
9325;BME280;4701;51.566;6.776;2022-12-18T12:41:19;102199.00;;;-1.18;91.95
9325;BME280;4701;51.566;6.776;2022-12-18T12:43:43;102197.19;;;-1.17;91.59
9325;BME280;4701;51.566;6.776;2022-12-18T12:45:49;102191.00;;;-1.18;91.57
9325;BME280;4701;51.566;6.776;2022-12-18T12:47:54;102181.13;;;-1.17;90.37
9325;BME280;4701;51.566;6.776;2022-12-18T12:50:01;102180.19;;;-1.08;89.50
9325;BME280;4701;51.566;6.776;2022-12-18T12:52:06;102185.09;;;-1.03;88.15
9325;BME280;4701;51.566;6.776;2022-12-18T12:54:15;102184.63;;;-0.99;88.47
9325;BME280;4701;51.566;6.776;2022-12-18T12:56:20;102180.47;;;-0.93;87.65
9325;BME280;4701;51.566;6.776;2022-12-18T12:58:28;102188.59;;;-0.85;85.98
9325;BME280;4701;51.566;6.776;2022-12-18T13:00:39;102185.13;;;-0.78;85.71
9325;BME280;4701;51.566;6.776;2022-12-18T13:02:48;102186.31;;;-0.72;84.53
9325;BME280;4701;51.566;6.776;2022-12-18T13:04:58;102186.38;;;-0.64;83.35
9325;BME280;4701;51.566;6.776;2022-12-18T13:07:06;102185.88;;;-0.59;82.37
9325;BME280;4701;51.566;6.776;2022-12-18T13:09:12;102183.44;;;-0.53;80.79
9325;BME280;4701;51.566;6.776;2022-12-18T13:11:29;102186.44;;;-0.48;79.89
9325;BME280;4701;51.566;6.776;2022-12-18T13:13:50;102175.63;;;-0.38;78.57
9325;BME280;4701;51.566;6.776;2022-12-18T13:16:05;102177.50;;;-0.30;76.10
9325;BME280;4701;51.566;6.776;2022-12-18T13:18:17;102173.00;;;-0.22;73.89
9325;BME280;4701;51.566;6.776;2022-12-18T13:20:20;102163.66;;;-0.18;73.25
9325;BME280;4701;51.566;6.776;2022-12-18T13:22:25;102162.00;;;-0.11;75.03
9325;BME280;4701;51.566;6.776;2022-12-18T13:24:30;102165.72;;;-0.04;73.51
9325;BME280;4701;51.566;6.776;2022-12-18T13:26:33;102159.38;;;0.06;72.21
9325;BME280;4701;51.566;6.776;2022-12-18T13:28:51;102149.81;;;0.03;72.82
9325;BME280;4701;51.566;6.776;2022-12-18T13:30:54;102151.81;;;0.01;72.58
9325;BME280;4701;51.566;6.776;2022-12-18T13:33:38;102138.59;;;-0.01;72.89
9325;BME280;4701;51.566;6.776;2022-12-18T13:35:50;102141.09;;;0.01;72.71
9325;BME280;4701;51.566;6.776;2022-12-18T13:37:54;102135.72;;;0.01;73.06
9325;BME280;4701;51.566;6.776;2022-12-18T13:39:56;102140.59;;;-0.03;73.03
9325;BME280;4701;51.566;6.776;2022-12-18T13:44:57;102122.53;;;0.08;71.83
9325;BME280;4701;51.566;6.776;2022-12-18T13:47:00;102110.13;;;0.07;72.02
9325;BME280;4701;51.566;6.776;2022-12-18T13:49:06;102113.13;;;0.12;71.36
9325;BME280;4701;51.566;6.776;2022-12-18T13:51:23;102107.28;;;0.16;69.16
9325;BME280;4701;51.566;6.776;2022-12-18T13:53:27;102105.63;;;0.23;68.62
9325;BME280;4701;51.566;6.776;2022-12-18T13:55:30;102107.47;;;0.23;68.38
9325;BME280;4701;51.566;6.776;2022-12-18T13:57:35;102100.25;;;0.23;68.23
9325;BME280;4701;51.566;6.776;2022-12-18T13:59:39;102091.69;;;0.20;68.26
9325;BME280;4701;51.566;6.776;2022-12-18T14:01:46;102093.06;;;0.24;68.42
9325;BME280;4701;51.566;6.776;2022-12-18T14:03:48;102090.22;;;0.25;68.42
9325;BME280;4701;51.566;6.776;2022-12-18T14:06:03;102089.19;;;0.26;67.68
9325;BME280;4701;51.566;6.776;2022-12-18T14:08:11;102085.50;;;0.27;66.48
9325;BME280;4701;51.566;6.776;2022-12-18T14:10:16;102082.50;;;0.30;65.80
9325;BME280;4701;51.566;6.776;2022-12-18T14:12:20;102084.50;;;0.28;65.75
9325;BME280;4701;51.566;6.776;2022-12-18T14:14:42;102078.28;;;0.28;66.11
9325;BME280;4701;51.566;6.776;2022-12-18T14:16:48;102083.16;;;0.16;66.61
9325;BME280;4701;51.566;6.776;2022-12-18T14:18:52;102090.38;;;0.16;66.89
9325;BME280;4701;51.566;6.776;2022-12-18T14:20:57;102075.28;;;0.15;67.56
9325;BME280;4701;51.566;6.776;2022-12-18T14:22:59;102076.28;;;0.14;67.71
9325;BME280;4701;51.566;6.776;2022-12-18T14:25:14;102072.09;;;0.11;67.61
9325;BME280;4701;51.566;6.776;2022-12-18T14:27:22;102071.59;;;0.16;67.61
9325;BME280;4701;51.566;6.776;2022-12-18T14:29:26;102067.25;;;0.15;67.68
9325;BME280;4701;51.566;6.776;2022-12-18T14:31:31;102057.34;;;0.07;67.84
9325;BME280;4701;51.566;6.776;2022-12-18T14:33:33;102054.66;;;-0.01;68.35
9325;BME280;4701;51.566;6.776;2022-12-18T14:35:36;102053.28;;;-0.05;68.58
9325;BME280;4701;51.566;6.776;2022-12-18T14:37:38;102061.34;;;0.03;68.45
9325;BME280;4701;51.566;6.776;2022-12-18T14:39:39;102064.69;;;-0.03;68.61
9325;BME280;4701;51.566;6.776;2022-12-18T14:41:43;102064.84;;;-0.05;67.98
9325;BME280;4701;51.566;6.776;2022-12-18T14:43:46;102059.66;;;0.02;67.30
9325;BME280;4701;51.566;6.776;2022-12-18T14:45:49;102064.88;;;0.04;66.76
9325;BME280;4701;51.566;6.776;2022-12-18T14:47:51;102058.84;;;0.18;65.91
9325;BME280;4701;51.566;6.776;2022-12-18T14:49:55;102060.03;;;0.23;64.75
9325;BME280;4701;51.566;6.776;2022-12-18T14:51:58;102054.16;;;0.28;64.79
9325;BME280;4701;51.566;6.776;2022-12-18T14:54:05;102058.84;;;0.26;64.57
9325;BME280;4701;51.566;6.776;2022-12-18T14:56:17;102048.47;;;0.23;64.86
9325;BME280;4701;51.566;6.776;2022-12-18T14:58:21;102058.84;;;0.26;64.08
9325;BME280;4701;51.566;6.776;2022-12-18T15:00:25;102060.72;;;0.25;64.82
9325;BME280;4701;51.566;6.776;2022-12-18T15:02:27;102058.53;;;0.21;63.51
9325;BME280;4701;51.566;6.776;2022-12-18T15:04:31;102063.03;;;0.20;64.43
9325;BME280;4701;51.566;6.776;2022-12-18T15:06:50;102057.53;;;0.22;64.84
9325;BME280;4701;51.566;6.776;2022-12-18T15:09:06;102056.00;;;0.19;64.49
9325;BME280;4701;51.566;6.776;2022-12-18T15:11:45;102046.63;;;0.15;64.71
9325;BME280;4701;51.566;6.776;2022-12-18T15:13:49;102047.63;;;0.14;63.97
9325;BME280;4701;51.566;6.776;2022-12-18T15:15:51;102035.72;;;0.09;64.74
9325;BME280;4701;51.566;6.776;2022-12-18T15:17:57;102043.09;;;0.15;64.73
9325;BME280;4701;51.566;6.776;2022-12-18T15:20:08;102037.59;;;0.16;64.59
9325;BME280;4701;51.566;6.776;2022-12-18T15:22:20;102031.19;;;0.17;63.97
9325;BME280;4701;51.566;6.776;2022-12-18T15:24:27;102030.69;;;0.06;64.88
9325;BME280;4701;51.566;6.776;2022-12-18T15:26:36;102030.03;;;0.04;64.49
9325;BME280;4701;51.566;6.776;2022-12-18T15:28:44;102025.81;;;0.01;65.54
9325;BME280;4701;51.566;6.776;2022-12-18T15:31:02;102027.84;;;0.07;65.14
9325;BME280;4701;51.566;6.776;2022-12-18T15:33:20;102027.03;;;0.07;64.57
9325;BME280;4701;51.566;6.776;2022-12-18T15:35:24;102029.53;;;0.00;64.32
9325;BME280;4701;51.566;6.776;2022-12-18T15:37:26;102020.81;;;-0.02;65.01
9325;BME280;4701;51.566;6.776;2022-12-18T15:39:28;102026.00;;;-0.01;65.69
9325;BME280;4701;51.566;6.776;2022-12-18T15:41:31;102018.44;;;-0.05;65.86
9325;BME280;4701;51.566;6.776;2022-12-18T15:43:37;102020.47;;;-0.07;66.48
9325;BME280;4701;51.566;6.776;2022-12-18T15:45:38;102018.44;;;-0.05;65.83
9325;BME280;4701;51.566;6.776;2022-12-18T15:47:41;102015.09;;;-0.07;65.49
9325;BME280;4701;51.566;6.776;2022-12-18T15:49:43;102021.66;;;-0.02;64.91
9325;BME280;4701;51.566;6.776;2022-12-18T15:51:48;102019.28;;;-0.05;65.54
9325;BME280;4701;51.566;6.776;2022-12-18T15:53:53;102020.47;;;-0.07;65.86
9325;BME280;4701;51.566;6.776;2022-12-18T15:55:55;102013.78;;;-0.03;64.40
9325;BME280;4701;51.566;6.776;2022-12-18T15:58:14;102012.94;;;0.05;64.56
9325;BME280;4701;51.566;6.776;2022-12-18T16:00:17;102006.41;;;0.07;63.87
9325;BME280;4701;51.566;6.776;2022-12-18T16:02:20;102010.94;;;0.15;64.13
9325;BME280;4701;51.566;6.776;2022-12-18T16:04:24;102009.94;;;0.16;64.63
9325;BME280;4701;51.566;6.776;2022-12-18T16:06:25;102007.25;;;0.16;64.00
9325;BME280;4701;51.566;6.776;2022-12-18T16:08:28;102008.25;;;0.15;64.16
9325;BME280;4701;51.566;6.776;2022-12-18T16:10:30;102028.19;;;0.12;63.78
9325;BME280;4701;51.566;6.776;2022-12-18T16:12:32;102032.38;;;0.07;63.47
9325;BME280;4701;51.566;6.776;2022-12-18T16:14:33;102009.75;;;0.09;64.36
9325;BME280;4701;51.566;6.776;2022-12-18T16:16:35;102007.75;;;0.11;64.33
9325;BME280;4701;51.566;6.776;2022-12-18T16:18:37;102014.09;;;0.10;64.57
9325;BME280;4701;51.566;6.776;2022-12-18T16:20:40;102013.44;;;0.16;63.81
9325;BME280;4701;51.566;6.776;2022-12-18T16:22:43;102025.81;;;0.17;63.91
9325;BME280;4701;51.566;6.776;2022-12-18T16:24:46;102022.97;;;0.19;64.09
9325;BME280;4701;51.566;6.776;2022-12-18T16:26:48;102022.16;;;0.10;64.07
9325;BME280;4701;51.566;6.776;2022-12-18T16:28:51;102015.78;;;0.11;64.59
9325;BME280;4701;51.566;6.776;2022-12-18T16:30:53;102014.78;;;0.04;64.66
9325;BME280;4701;51.566;6.776;2022-12-18T16:32:55;102013.09;;;0.03;65.35
9325;BME280;4701;51.566;6.776;2022-12-18T16:34:59;101996.69;;;0.06;65.08
9325;BME280;4701;51.566;6.776;2022-12-18T16:37:04;102003.53;;;0.00;65.84
9325;BME280;4701;51.566;6.776;2022-12-18T16:39:06;101996.69;;;-0.02;65.64
9325;BME280;4701;51.566;6.776;2022-12-18T16:41:18;102007.06;;;0.01;65.35
9325;BME280;4701;51.566;6.776;2022-12-18T16:43:32;102006.56;;;-0.03;65.61
9325;BME280;4701;51.566;6.776;2022-12-18T16:45:33;102003.91;;;0.06;65.80
9325;BME280;4701;51.566;6.776;2022-12-18T16:47:35;102004.88;;;-0.04;65.53
9325;BME280;4701;51.566;6.776;2022-12-18T16:49:37;102000.69;;;-0.06;65.74
9325;BME280;4701;51.566;6.776;2022-12-18T16:51:39;101997.16;;;-0.15;65.91
9325;BME280;4701;51.566;6.776;2022-12-18T16:53:42;102002.22;;;-0.12;66.17
9325;BME280;4701;51.566;6.776;2022-12-18T16:55:44;102007.41;;;-0.02;66.36
9325;BME280;4701;51.566;6.776;2022-12-18T16:57:46;101999.38;;;-0.10;67.16
9325;BME280;4701;51.566;6.776;2022-12-18T16:59:48;101983.63;;;-0.05;66.84
9325;BME280;4701;51.566;6.776;2022-12-18T17:01:49;101985.44;;;-0.06;67.14
9325;BME280;4701;51.566;6.776;2022-12-18T17:03:52;101975.72;;;-0.07;67.66
9325;BME280;4701;51.566;6.776;2022-12-18T17:05:54;101975.25;;;-0.18;67.27
9325;BME280;4701;51.566;6.776;2022-12-18T17:07:56;101980.41;;;-0.17;67.81
9325;BME280;4701;51.566;6.776;2022-12-18T17:09:59;101976.09;;;-0.10;67.75
9325;BME280;4701;51.566;6.776;2022-12-18T17:12:02;101968.22;;;-0.11;68.24
9325;BME280;4701;51.566;6.776;2022-12-18T17:14:08;101965.00;;;-0.07;68.23
9325;BME280;4701;51.566;6.776;2022-12-18T17:16:10;101964.00;;;-0.06;68.15
9325;BME280;4701;51.566;6.776;2022-12-18T17:18:12;101965.16;;;-0.08;68.47